sensor_id;sensor_type;location;lat;lon;timestamp;P1;durP1;ratioP1;P2;durP2;ratioP2
39044;SDS011;52192;52.002;5.956;2023-04-24T00:01:42;2.03;;;1.25;;
39044;SDS011;52192;52.002;5.956;2023-04-24T00:04:08;1.52;;;1.00;;
39044;SDS011;52192;52.002;5.956;2023-04-24T00:06:36;1.90;;;1.33;;
39044;SDS011;52192;52.002;5.956;2023-04-24T00:09:02;2.28;;;1.20;;
39044;SDS011;52192;52.002;5.956;2023-04-24T00:11:28;1.58;;;1.02;;
39044;SDS011;52192;52.002;5.956;2023-04-24T00:13:55;1.27;;;1.00;;
39044;SDS011;52192;52.002;5.956;2023-04-24T00:16:21;1.65;;;1.25;;
39044;SDS011;52192;52.002;5.956;2023-04-24T00:18:47;2.22;;;1.58;;
39044;SDS011;52192;52.002;5.956;2023-04-24T00:21:14;1.20;;;0.98;;
39044;SDS011;52192;52.002;5.956;2023-04-24T00:23:42;2.10;;;1.67;;
39044;SDS011;52192;52.002;5.956;2023-04-24T00:26:09;2.72;;;1.30;;
39044;SDS011;52192;52.002;5.956;2023-04-24T00:28:35;2.00;;;1.02;;
39044;SDS011;52192;52.002;5.956;2023-04-24T00:31:01;3.20;;;1.42;;
39044;SDS011;52192;52.002;5.956;2023-04-24T00:33:26;1.85;;;1.27;;
39044;SDS011;52192;52.002;5.956;2023-04-24T00:35:52;1.15;;;0.95;;
39044;SDS011;52192;52.002;5.956;2023-04-24T00:38:18;0.88;;;0.75;;
39044;SDS011;52192;52.002;5.956;2023-04-24T00:40:44;1.08;;;0.77;;
39044;SDS011;52192;52.002;5.956;2023-04-24T00:43:10;0.60;;;0.50;;
39044;SDS011;52192;52.002;5.956;2023-04-24T00:45:36;0.60;;;0.60;;
39044;SDS011;52192;52.002;5.956;2023-04-24T00:48:02;1.27;;;0.70;;
39044;SDS011;52192;52.002;5.956;2023-04-24T00:50:29;0.93;;;0.50;;
39044;SDS011;52192;52.002;5.956;2023-04-24T00:52:55;0.75;;;0.47;;
39044;SDS011;52192;52.002;5.956;2023-04-24T00:55:21;0.73;;;0.70;;
39044;SDS011;52192;52.002;5.956;2023-04-24T00:57:49;0.50;;;0.50;;
39044;SDS011;52192;52.002;5.956;2023-04-24T01:00:15;0.57;;;0.45;;
39044;SDS011;52192;52.002;5.956;2023-04-24T01:02:41;0.75;;;0.75;;
39044;SDS011;52192;52.002;5.956;2023-04-24T01:05:10;0.57;;;0.50;;
39044;SDS011;52192;52.002;5.956;2023-04-24T01:07:38;1.00;;;0.95;;
39044;SDS011;52192;52.002;5.956;2023-04-24T01:10:06;1.20;;;1.00;;
39044;SDS011;52192;52.002;5.956;2023-04-24T01:12:33;1.88;;;1.17;;
39044;SDS011;52192;52.002;5.956;2023-04-24T01:14:59;1.42;;;1.17;;
39044;SDS011;52192;52.002;5.956;2023-04-24T01:17:24;1.80;;;1.08;;
39044;SDS011;52192;52.002;5.956;2023-04-24T01:19:50;2.70;;;1.20;;
39044;SDS011;52192;52.002;5.956;2023-04-24T01:22:18;3.42;;;2.40;;
39044;SDS011;52192;52.002;5.956;2023-04-24T01:24:45;2.08;;;1.77;;
39044;SDS011;52192;52.002;5.956;2023-04-24T01:27:11;4.25;;;2.83;;
39044;SDS011;52192;52.002;5.956;2023-04-24T01:29:37;4.93;;;3.15;;
39044;SDS011;52192;52.002;5.956;2023-04-24T01:32:03;5.10;;;2.83;;
39044;SDS011;52192;52.002;5.956;2023-04-24T01:34:30;5.40;;;3.58;;
39044;SDS011;52192;52.002;5.956;2023-04-24T01:36:56;5.38;;;3.42;;
39044;SDS011;52192;52.002;5.956;2023-04-24T01:39:22;6.53;;;3.92;;
39044;SDS011;52192;52.002;5.956;2023-04-24T01:41:51;7.20;;;4.20;;
39044;SDS011;52192;52.002;5.956;2023-04-24T01:44:17;7.35;;;3.88;;
39044;SDS011;52192;52.002;5.956;2023-04-24T01:46:43;5.93;;;3.10;;
39044;SDS011;52192;52.002;5.956;2023-04-24T01:49:09;5.90;;;3.10;;
39044;SDS011;52192;52.002;5.956;2023-04-24T01:51:35;4.82;;;3.03;;
39044;SDS011;52192;52.002;5.956;2023-04-24T01:54:01;3.40;;;2.38;;
39044;SDS011;52192;52.002;5.956;2023-04-24T01:56:28;3.70;;;1.75;;
39044;SDS011;52192;52.002;5.956;2023-04-24T01:58:55;2.97;;;1.77;;
39044;SDS011;52192;52.002;5.956;2023-04-24T02:01:23;3.83;;;1.58;;
39044;SDS011;52192;52.002;5.956;2023-04-24T02:03:49;1.80;;;1.33;;
39044;SDS011;52192;52.002;5.956;2023-04-24T02:06:15;1.73;;;1.13;;
39044;SDS011;52192;52.002;5.956;2023-04-24T02:08:41;2.47;;;1.70;;
39044;SDS011;52192;52.002;5.956;2023-04-24T02:11:08;1.60;;;1.50;;
39044;SDS011;52192;52.002;5.956;2023-04-24T02:13:34;2.33;;;1.73;;
39044;SDS011;52192;52.002;5.956;2023-04-24T02:16:00;4.63;;;1.88;;
39044;SDS011;52192;52.002;5.956;2023-04-24T02:18:26;3.72;;;2.30;;
39044;SDS011;52192;52.002;5.956;2023-04-24T02:20:52;4.75;;;3.42;;
39044;SDS011;52192;52.002;5.956;2023-04-24T02:23:18;2.80;;;1.85;;
39044;SDS011;52192;52.002;5.956;2023-04-24T02:25:44;3.05;;;2.30;;
39044;SDS011;52192;52.002;5.956;2023-04-24T02:28:10;3.90;;;2.35;;
39044;SDS011;52192;52.002;5.956;2023-04-24T02:30:36;5.80;;;3.53;;
39044;SDS011;52192;52.002;5.956;2023-04-24T02:33:02;5.20;;;3.47;;
39044;SDS011;52192;52.002;5.956;2023-04-24T02:35:28;6.40;;;3.97;;
39044;SDS011;52192;52.002;5.956;2023-04-24T02:37:54;17.80;;;5.20;;
39044;SDS011;52192;52.002;5.956;2023-04-24T02:40:20;10.88;;;4.05;;
39044;SDS011;52192;52.002;5.956;2023-04-24T02:42:46;8.18;;;4.43;;
39044;SDS011;52192;52.002;5.956;2023-04-24T02:45:11;7.78;;;4.45;;
39044;SDS011;52192;52.002;5.956;2023-04-24T02:47:37;8.43;;;4.88;;
39044;SDS011;52192;52.002;5.956;2023-04-24T02:50:03;8.25;;;4.78;;
39044;SDS011;52192;52.002;5.956;2023-04-24T02:52:29;7.47;;;5.10;;
39044;SDS011;52192;52.002;5.956;2023-04-24T02:54:55;9.50;;;4.95;;
39044;SDS011;52192;52.002;5.956;2023-04-24T02:57:21;9.23;;;4.93;;
39044;SDS011;52192;52.002;5.956;2023-04-24T02:59:46;7.53;;;4.43;;
39044;SDS011;52192;52.002;5.956;2023-04-24T03:02:12;7.53;;;4.30;;
39044;SDS011;52192;52.002;5.956;2023-04-24T03:04:37;8.35;;;5.15;;
39044;SDS011;52192;52.002;5.956;2023-04-24T03:07:04;8.65;;;4.53;;
39044;SDS011;52192;52.002;5.956;2023-04-24T03:09:30;9.10;;;4.65;;
39044;SDS011;52192;52.002;5.956;2023-04-24T03:11:56;5.32;;;4.30;;
39044;SDS011;52192;52.002;5.956;2023-04-24T03:14:23;6.47;;;4.05;;
39044;SDS011;52192;52.002;5.956;2023-04-24T03:16:48;7.07;;;4.38;;
39044;SDS011;52192;52.002;5.956;2023-04-24T03:19:18;7.10;;;4.38;;
39044;SDS011;52192;52.002;5.956;2023-04-24T03:21:43;6.55;;;4.43;;
39044;SDS011;52192;52.002;5.956;2023-04-24T03:24:09;6.65;;;4.10;;
39044;SDS011;52192;52.002;5.956;2023-04-24T03:26:35;7.65;;;3.78;;
39044;SDS011;52192;52.002;5.956;2023-04-24T03:29:00;7.50;;;4.90;;
39044;SDS011;52192;52.002;5.956;2023-04-24T03:31:26;6.57;;;4.75;;
39044;SDS011;52192;52.002;5.956;2023-04-24T03:33:52;6.57;;;3.47;;
39044;SDS011;52192;52.002;5.956;2023-04-24T03:36:18;5.55;;;4.00;;
39044;SDS011;52192;52.002;5.956;2023-04-24T03:38:44;4.82;;;3.17;;
39044;SDS011;52192;52.002;5.956;2023-04-24T03:41:10;7.22;;;3.72;;
39044;SDS011;52192;52.002;5.956;2023-04-24T03:43:36;6.63;;;4.10;;
39044;SDS011;52192;52.002;5.956;2023-04-24T03:46:03;5.35;;;3.58;;
39044;SDS011;52192;52.002;5.956;2023-04-24T03:48:28;6.55;;;4.65;;
39044;SDS011;52192;52.002;5.956;2023-04-24T03:50:54;8.15;;;4.00;;
39044;SDS011;52192;52.002;5.956;2023-04-24T03:53:20;9.65;;;5.15;;
39044;SDS011;52192;52.002;5.956;2023-04-24T03:55:46;12.40;;;5.47;;
39044;SDS011;52192;52.002;5.956;2023-04-24T03:58:12;9.77;;;6.50;;
39044;SDS011;52192;52.002;5.956;2023-04-24T04:00:41;9.13;;;5.75;;
39044;SDS011;52192;52.002;5.956;2023-04-24T04:03:07;9.43;;;5.70;;
39044;SDS011;52192;52.002;5.956;2023-04-24T04:05:32;10.60;;;7.40;;
39044;SDS011;52192;52.002;5.956;2023-04-24T04:07:58;14.55;;;7.07;;
39044;SDS011;52192;52.002;5.956;2023-04-24T04:10:23;8.93;;;5.57;;
39044;SDS011;52192;52.002;5.956;2023-04-24T04:12:49;10.00;;;7.22;;
39044;SDS011;52192;52.002;5.956;2023-04-24T04:15:15;11.38;;;6.90;;
39044;SDS011;52192;52.002;5.956;2023-04-24T04:17:41;9.82;;;6.65;;
39044;SDS011;52192;52.002;5.956;2023-04-24T04:20:07;11.05;;;7.53;;
39044;SDS011;52192;52.002;5.956;2023-04-24T04:22:36;13.65;;;6.72;;
39044;SDS011;52192;52.002;5.956;2023-04-24T04:25:02;11.48;;;5.97;;
39044;SDS011;52192;52.002;5.956;2023-04-24T04:27:28;11.38;;;6.85;;
39044;SDS011;52192;52.002;5.956;2023-04-24T04:29:57;11.73;;;7.28;;
39044;SDS011;52192;52.002;5.956;2023-04-24T04:32:26;11.52;;;6.88;;
39044;SDS011;52192;52.002;5.956;2023-04-24T04:34:52;9.63;;;5.47;;
39044;SDS011;52192;52.002;5.956;2023-04-24T04:37:18;13.82;;;5.53;;
39044;SDS011;52192;52.002;5.956;2023-04-24T04:39:44;7.07;;;4.53;;
39044;SDS011;52192;52.002;5.956;2023-04-24T04:42:10;7.10;;;4.45;;
39044;SDS011;52192;52.002;5.956;2023-04-24T04:44:35;8.18;;;5.95;;
39044;SDS011;52192;52.002;5.956;2023-04-24T04:47:01;9.68;;;5.95;;
39044;SDS011;52192;52.002;5.956;2023-04-24T04:49:30;8.60;;;5.15;;
39044;SDS011;52192;52.002;5.956;2023-04-24T04:51:59;10.65;;;5.95;;
39044;SDS011;52192;52.002;5.956;2023-04-24T04:54:25;9.45;;;5.28;;
39044;SDS011;52192;52.002;5.956;2023-04-24T04:56:51;7.38;;;4.72;;
39044;SDS011;52192;52.002;5.956;2023-04-24T04:59:16;9.43;;;5.25;;
39044;SDS011;52192;52.002;5.956;2023-04-24T05:01:42;8.25;;;5.30;;
39044;SDS011;52192;52.002;5.956;2023-04-24T05:04:08;9.60;;;5.13;;
39044;SDS011;52192;52.002;5.956;2023-04-24T05:06:33;7.63;;;5.22;;
39044;SDS011;52192;52.002;5.956;2023-04-24T05:08:59;6.68;;;4.43;;
39044;SDS011;52192;52.002;5.956;2023-04-24T05:11:25;6.82;;;4.47;;
39044;SDS011;52192;52.002;5.956;2023-04-24T05:13:50;6.65;;;4.28;;
39044;SDS011;52192;52.002;5.956;2023-04-24T05:16:16;9.13;;;5.03;;
39044;SDS011;52192;52.002;5.956;2023-04-24T05:18:41;7.93;;;5.00;;
39044;SDS011;52192;52.002;5.956;2023-04-24T05:21:07;6.75;;;4.47;;
39044;SDS011;52192;52.002;5.956;2023-04-24T05:23:33;6.65;;;3.67;;
39044;SDS011;52192;52.002;5.956;2023-04-24T05:25:58;6.13;;;4.55;;
39044;SDS011;52192;52.002;5.956;2023-04-24T05:28:24;6.40;;;4.10;;
39044;SDS011;52192;52.002;5.956;2023-04-24T05:30:53;7.82;;;4.53;;
39044;SDS011;52192;52.002;5.956;2023-04-24T05:33:20;5.13;;;3.75;;
39044;SDS011;52192;52.002;5.956;2023-04-24T05:35:47;5.93;;;4.18;;
39044;SDS011;52192;52.002;5.956;2023-04-24T05:38:13;6.25;;;4.10;;
39044;SDS011;52192;52.002;5.956;2023-04-24T05:40:39;5.72;;;3.72;;
39044;SDS011;52192;52.002;5.956;2023-04-24T05:43:05;6.78;;;4.70;;
39044;SDS011;52192;52.002;5.956;2023-04-24T05:45:30;5.50;;;4.03;;
39044;SDS011;52192;52.002;5.956;2023-04-24T05:47:56;5.45;;;3.67;;
39044;SDS011;52192;52.002;5.956;2023-04-24T05:50:22;6.05;;;4.22;;
39044;SDS011;52192;52.002;5.956;2023-04-24T05:52:48;5.07;;;3.42;;
39044;SDS011;52192;52.002;5.956;2023-04-24T05:55:13;4.88;;;3.35;;
39044;SDS011;52192;52.002;5.956;2023-04-24T05:57:42;5.07;;;3.45;;
39044;SDS011;52192;52.002;5.956;2023-04-24T06:00:08;4.15;;;2.85;;
39044;SDS011;52192;52.002;5.956;2023-04-24T06:02:37;4.20;;;2.80;;
39044;SDS011;52192;52.002;5.956;2023-04-24T06:05:03;4.60;;;2.47;;
39044;SDS011;52192;52.002;5.956;2023-04-24T06:07:29;5.63;;;3.50;;
39044;SDS011;52192;52.002;5.956;2023-04-24T06:09:56;5.03;;;3.00;;
39044;SDS011;52192;52.002;5.956;2023-04-24T06:12:22;4.78;;;2.42;;
39044;SDS011;52192;52.002;5.956;2023-04-24T06:14:47;4.07;;;2.92;;
39044;SDS011;52192;52.002;5.956;2023-04-24T06:17:13;3.45;;;2.40;;
39044;SDS011;52192;52.002;5.956;2023-04-24T06:19:39;3.40;;;2.90;;
39044;SDS011;52192;52.002;5.956;2023-04-24T06:22:05;5.15;;;2.80;;
39044;SDS011;52192;52.002;5.956;2023-04-24T06:24:31;2.85;;;1.90;;
39044;SDS011;52192;52.002;5.956;2023-04-24T06:26:57;5.03;;;2.60;;
39044;SDS011;52192;52.002;5.956;2023-04-24T06:29:24;6.38;;;2.83;;
39044;SDS011;52192;52.002;5.956;2023-04-24T06:31:50;4.75;;;2.30;;
39044;SDS011;52192;52.002;5.956;2023-04-24T06:34:16;4.57;;;2.25;;
39044;SDS011;52192;52.002;5.956;2023-04-24T06:36:41;4.07;;;2.95;;
39044;SDS011;52192;52.002;5.956;2023-04-24T06:39:07;2.92;;;2.05;;
39044;SDS011;52192;52.002;5.956;2023-04-24T06:41:33;3.38;;;2.72;;
39044;SDS011;52192;52.002;5.956;2023-04-24T06:43:58;4.03;;;2.33;;
39044;SDS011;52192;52.002;5.956;2023-04-24T06:46:24;3.30;;;2.47;;
39044;SDS011;52192;52.002;5.956;2023-04-24T06:48:51;4.18;;;2.10;;
39044;SDS011;52192;52.002;5.956;2023-04-24T06:51:21;3.05;;;1.70;;
39044;SDS011;52192;52.002;5.956;2023-04-24T06:53:47;2.35;;;1.60;;
39044;SDS011;52192;52.002;5.956;2023-04-24T06:56:14;3.00;;;1.70;;
39044;SDS011;52192;52.002;5.956;2023-04-24T06:58:40;1.17;;;1.00;;
39044;SDS011;52192;52.002;5.956;2023-04-24T07:01:06;2.35;;;1.55;;
39044;SDS011;52192;52.002;5.956;2023-04-24T07:03:32;2.35;;;1.60;;
39044;SDS011;52192;52.002;5.956;2023-04-24T07:05:58;2.22;;;1.30;;
39044;SDS011;52192;52.002;5.956;2023-04-24T07:08:23;1.38;;;1.10;;
39044;SDS011;52192;52.002;5.956;2023-04-24T07:10:50;1.65;;;0.88;;
39044;SDS011;52192;52.002;5.956;2023-04-24T07:13:16;1.05;;;0.77;;
39044;SDS011;52192;52.002;5.956;2023-04-24T07:15:42;1.13;;;0.82;;
39044;SDS011;52192;52.002;5.956;2023-04-24T07:18:08;1.30;;;0.90;;
39044;SDS011;52192;52.002;5.956;2023-04-24T07:20:34;1.65;;;0.70;;
39044;SDS011;52192;52.002;5.956;2023-04-24T07:23:00;1.17;;;0.77;;
39044;SDS011;52192;52.002;5.956;2023-04-24T07:25:25;0.75;;;0.75;;
39044;SDS011;52192;52.002;5.956;2023-04-24T07:27:51;0.73;;;0.60;;
39044;SDS011;52192;52.002;5.956;2023-04-24T07:30:18;0.77;;;0.77;;
39044;SDS011;52192;52.002;5.956;2023-04-24T07:32:43;0.65;;;0.63;;
39044;SDS011;52192;52.002;5.956;2023-04-24T07:35:09;1.30;;;0.70;;
39044;SDS011;52192;52.002;5.956;2023-04-24T07:37:35;0.52;;;0.50;;
39044;SDS011;52192;52.002;5.956;2023-04-24T07:40:01;0.65;;;0.47;;
39044;SDS011;52192;52.002;5.956;2023-04-24T07:42:27;1.13;;;0.65;;
39044;SDS011;52192;52.002;5.956;2023-04-24T07:44:55;0.75;;;0.57;;
39044;SDS011;52192;52.002;5.956;2023-04-24T07:47:21;1.05;;;0.80;;
39044;SDS011;52192;52.002;5.956;2023-04-24T07:49:47;1.02;;;0.80;;
39044;SDS011;52192;52.002;5.956;2023-04-24T07:52:12;2.78;;;1.05;;
39044;SDS011;52192;52.002;5.956;2023-04-24T07:54:38;2.22;;;0.70;;
39044;SDS011;52192;52.002;5.956;2023-04-24T07:57:04;1.25;;;1.10;;
39044;SDS011;52192;52.002;5.956;2023-04-24T07:59:31;1.70;;;1.17;;
39044;SDS011;52192;52.002;5.956;2023-04-24T08:01:57;2.15;;;1.13;;
39044;SDS011;52192;52.002;5.956;2023-04-24T08:04:23;3.17;;;1.75;;
39044;SDS011;52192;52.002;5.956;2023-04-24T08:06:48;2.35;;;1.45;;
39044;SDS011;52192;52.002;5.956;2023-04-24T08:09:14;2.72;;;2.17;;
39044;SDS011;52192;52.002;5.956;2023-04-24T08:11:40;2.58;;;2.20;;
39044;SDS011;52192;52.002;5.956;2023-04-24T08:14:05;5.10;;;2.47;;
39044;SDS011;52192;52.002;5.956;2023-04-24T08:16:32;6.68;;;2.60;;
39044;SDS011;52192;52.002;5.956;2023-04-24T08:18:58;5.07;;;2.50;;
39044;SDS011;52192;52.002;5.956;2023-04-24T08:21:23;4.32;;;2.10;;
39044;SDS011;52192;52.002;5.956;2023-04-24T08:23:52;4.38;;;1.98;;
39044;SDS011;52192;52.002;5.956;2023-04-24T08:26:17;2.75;;;2.10;;
39044;SDS011;52192;52.002;5.956;2023-04-24T08:28:43;3.13;;;2.38;;
39044;SDS011;52192;52.002;5.956;2023-04-24T08:31:09;3.58;;;2.33;;
39044;SDS011;52192;52.002;5.956;2023-04-24T08:33:35;2.47;;;1.35;;
39044;SDS011;52192;52.002;5.956;2023-04-24T08:36:04;4.38;;;2.45;;
39044;SDS011;52192;52.002;5.956;2023-04-24T08:38:30;2.58;;;2.15;;
39044;SDS011;52192;52.002;5.956;2023-04-24T08:40:57;2.92;;;2.05;;
39044;SDS011;52192;52.002;5.956;2023-04-24T08:43:24;7.15;;;2.53;;
39044;SDS011;52192;52.002;5.956;2023-04-24T08:45:51;3.25;;;1.90;;
39044;SDS011;52192;52.002;5.956;2023-04-24T08:48:17;4.15;;;2.00;;
39044;SDS011;52192;52.002;5.956;2023-04-24T08:50:43;4.07;;;2.40;;
39044;SDS011;52192;52.002;5.956;2023-04-24T08:53:09;6.15;;;2.65;;
39044;SDS011;52192;52.002;5.956;2023-04-24T08:55:37;4.00;;;2.50;;
39044;SDS011;52192;52.002;5.956;2023-04-24T08:58:03;3.40;;;2.20;;
39044;SDS011;52192;52.002;5.956;2023-04-24T09:00:29;2.65;;;2.00;;
39044;SDS011;52192;52.002;5.956;2023-04-24T09:02:55;2.80;;;1.90;;
39044;SDS011;52192;52.002;5.956;2023-04-24T09:05:22;4.03;;;2.00;;
39044;SDS011;52192;52.002;5.956;2023-04-24T09:07:54;5.38;;;1.90;;
39044;SDS011;52192;52.002;5.956;2023-04-24T09:10:22;2.63;;;1.73;;
39044;SDS011;52192;52.002;5.956;2023-04-24T09:12:49;2.75;;;1.83;;
39044;SDS011;52192;52.002;5.956;2023-04-24T09:15:16;3.78;;;1.98;;
39044;SDS011;52192;52.002;5.956;2023-04-24T09:17:43;1.80;;;1.50;;
39044;SDS011;52192;52.002;5.956;2023-04-24T09:20:09;2.17;;;1.20;;
39044;SDS011;52192;52.002;5.956;2023-04-24T09:22:36;5.78;;;1.70;;
39044;SDS011;52192;52.002;5.956;2023-04-24T09:25:05;3.72;;;1.58;;
39044;SDS011;52192;52.002;5.956;2023-04-24T09:27:34;3.10;;;1.40;;
39044;SDS011;52192;52.002;5.956;2023-04-24T09:30:00;4.65;;;2.00;;
39044;SDS011;52192;52.002;5.956;2023-04-24T09:32:26;1.95;;;1.30;;
39044;SDS011;52192;52.002;5.956;2023-04-24T09:35:07;2.60;;;1.20;;
39044;SDS011;52192;52.002;5.956;2023-04-24T09:37:36;2.78;;;1.25;;
39044;SDS011;52192;52.002;5.956;2023-04-24T09:40:10;3.13;;;1.38;;
39044;SDS011;52192;52.002;5.956;2023-04-24T09:42:38;2.05;;;1.50;;
39044;SDS011;52192;52.002;5.956;2023-04-24T09:45:08;3.67;;;1.60;;
39044;SDS011;52192;52.002;5.956;2023-04-24T09:50:15;3.35;;;1.27;;
39044;SDS011;52192;52.002;5.956;2023-04-24T09:52:45;2.47;;;1.25;;
39044;SDS011;52192;52.002;5.956;2023-04-24T09:55:20;1.65;;;1.27;;
39044;SDS011;52192;52.002;5.956;2023-04-24T09:57:53;2.63;;;1.50;;
39044;SDS011;52192;52.002;5.956;2023-04-24T10:00:27;8.88;;;1.88;;
39044;SDS011;52192;52.002;5.956;2023-04-24T10:02:55;3.83;;;1.35;;
39044;SDS011;52192;52.002;5.956;2023-04-24T10:05:34;4.63;;;1.15;;
39044;SDS011;52192;52.002;5.956;2023-04-24T10:08:08;1.88;;;1.17;;
39044;SDS011;52192;52.002;5.956;2023-04-24T10:10:37;2.20;;;1.00;;
39044;SDS011;52192;52.002;5.956;2023-04-24T10:13:08;7.53;;;1.65;;
39044;SDS011;52192;52.002;5.956;2023-04-24T10:15:35;0.88;;;0.60;;
39044;SDS011;52192;52.002;5.956;2023-04-24T10:18:01;2.35;;;1.63;;
39044;SDS011;52192;52.002;5.956;2023-04-24T10:20:29;2.72;;;1.15;;
39044;SDS011;52192;52.002;5.956;2023-04-24T10:22:56;4.72;;;1.63;;
39044;SDS011;52192;52.002;5.956;2023-04-24T10:25:23;4.40;;;1.13;;
39044;SDS011;52192;52.002;5.956;2023-04-24T10:27:51;1.45;;;0.70;;
39044;SDS011;52192;52.002;5.956;2023-04-24T10:30:20;4.35;;;1.45;;
39044;SDS011;52192;52.002;5.956;2023-04-24T10:32:46;1.13;;;0.90;;
39044;SDS011;52192;52.002;5.956;2023-04-24T10:35:12;1.70;;;1.30;;
39044;SDS011;52192;52.002;5.956;2023-04-24T10:37:43;4.10;;;1.13;;
39044;SDS011;52192;52.002;5.956;2023-04-24T10:40:11;1.15;;;0.85;;
39044;SDS011;52192;52.002;5.956;2023-04-24T10:42:42;1.98;;;0.95;;
39044;SDS011;52192;52.002;5.956;2023-04-24T10:45:21;11.77;;;0.90;;
39044;SDS011;52192;52.002;5.956;2023-04-24T10:48:01;7.45;;;1.25;;
39044;SDS011;52192;52.002;5.956;2023-04-24T10:50:51;2.08;;;1.02;;
39044;SDS011;52192;52.002;5.956;2023-04-24T10:53:21;2.47;;;0.90;;
39044;SDS011;52192;52.002;5.956;2023-04-24T10:56:15;2.20;;;0.80;;
39044;SDS011;52192;52.002;5.956;2023-04-24T10:58:42;3.63;;;1.33;;
39044;SDS011;52192;52.002;5.956;2023-04-24T11:01:22;1.27;;;0.93;;
39044;SDS011;52192;52.002;5.956;2023-04-24T11:03:58;1.80;;;1.27;;
39044;SDS011;52192;52.002;5.956;2023-04-24T11:06:32;3.28;;;1.25;;
39044;SDS011;52192;52.002;5.956;2023-04-24T11:11:32;1.23;;;1.13;;
39044;SDS011;52192;52.002;5.956;2023-04-24T11:16:30;0.55;;;0.55;;
39044;SDS011;52192;52.002;5.956;2023-04-24T11:19:17;1.10;;;0.90;;
39044;SDS011;52192;52.002;5.956;2023-04-24T11:21:48;2.17;;;0.90;;
39044;SDS011;52192;52.002;5.956;2023-04-24T11:29:38;1.95;;;0.60;;
39044;SDS011;52192;52.002;5.956;2023-04-24T11:34:47;1.85;;;0.40;;
39044;SDS011;52192;52.002;5.956;2023-04-24T11:37:13;1.17;;;0.65;;
39044;SDS011;52192;52.002;5.956;2023-04-24T11:39:40;0.32;;;0.30;;
39044;SDS011;52192;52.002;5.956;2023-04-24T11:42:06;0.88;;;0.38;;
39044;SDS011;52192;52.002;5.956;2023-04-24T11:44:34;1.02;;;0.47;;
39044;SDS011;52192;52.002;5.956;2023-04-24T11:47:02;0.30;;;0.30;;
39044;SDS011;52192;52.002;5.956;2023-04-24T11:49:29;1.05;;;0.65;;
39044;SDS011;52192;52.002;5.956;2023-04-24T11:51:55;0.45;;;0.38;;
39044;SDS011;52192;52.002;5.956;2023-04-24T11:54:21;0.60;;;0.40;;
39044;SDS011;52192;52.002;5.956;2023-04-24T11:56:47;0.40;;;0.38;;
39044;SDS011;52192;52.002;5.956;2023-04-24T11:59:14;0.85;;;0.30;;
39044;SDS011;52192;52.002;5.956;2023-04-24T12:01:43;2.00;;;0.47;;
39044;SDS011;52192;52.002;5.956;2023-04-24T12:04:10;0.38;;;0.35;;
39044;SDS011;52192;52.002;5.956;2023-04-24T12:06:36;0.35;;;0.35;;
39044;SDS011;52192;52.002;5.956;2023-04-24T12:09:01;6.45;;;0.70;;
39044;SDS011;52192;52.002;5.956;2023-04-24T12:11:27;0.65;;;0.63;;
39044;SDS011;52192;52.002;5.956;2023-04-24T12:13:53;0.65;;;0.43;;
39044;SDS011;52192;52.002;5.956;2023-04-24T12:16:19;0.28;;;0.28;;
39044;SDS011;52192;52.002;5.956;2023-04-24T12:18:45;0.63;;;0.52;;
39044;SDS011;52192;52.002;5.956;2023-04-24T12:21:14;0.57;;;0.47;;
39044;SDS011;52192;52.002;5.956;2023-04-24T12:23:42;1.30;;;0.60;;
39044;SDS011;52192;52.002;5.956;2023-04-24T12:26:12;0.40;;;0.22;;
39044;SDS011;52192;52.002;5.956;2023-04-24T12:28:42;0.63;;;0.52;;
39044;SDS011;52192;52.002;5.956;2023-04-24T12:31:07;1.10;;;0.35;;
39044;SDS011;52192;52.002;5.956;2023-04-24T12:33:33;0.47;;;0.47;;
39044;SDS011;52192;52.002;5.956;2023-04-24T12:36:00;0.40;;;0.40;;
39044;SDS011;52192;52.002;5.956;2023-04-24T12:38:27;1.65;;;0.65;;
39044;SDS011;52192;52.002;5.956;2023-04-24T12:41:12;7.97;;;0.50;;
39044;SDS011;52192;52.002;5.956;2023-04-24T12:43:38;0.47;;;0.45;;
39044;SDS011;52192;52.002;5.956;2023-04-24T12:46:15;0.95;;;0.60;;
39044;SDS011;52192;52.002;5.956;2023-04-24T12:48:41;0.60;;;0.60;;
39044;SDS011;52192;52.002;5.956;2023-04-24T12:51:06;2.42;;;0.68;;
39044;SDS011;52192;52.002;5.956;2023-04-24T12:53:32;0.60;;;0.30;;
39044;SDS011;52192;52.002;5.956;2023-04-24T12:55:57;3.63;;;0.60;;
39044;SDS011;52192;52.002;5.956;2023-04-24T12:58:23;0.70;;;0.52;;
39044;SDS011;52192;52.002;5.956;2023-04-24T13:00:49;0.93;;;0.68;;
39044;SDS011;52192;52.002;5.956;2023-04-24T13:03:15;3.28;;;0.65;;
39044;SDS011;52192;52.002;5.956;2023-04-24T13:05:42;0.35;;;0.32;;
39044;SDS011;52192;52.002;5.956;2023-04-24T13:08:08;0.80;;;0.55;;
39044;SDS011;52192;52.002;5.956;2023-04-24T13:10:34;0.95;;;0.60;;
39044;SDS011;52192;52.002;5.956;2023-04-24T13:13:00;0.30;;;0.30;;
39044;SDS011;52192;52.002;5.956;2023-04-24T13:15:26;4.10;;;0.57;;
39044;SDS011;52192;52.002;5.956;2023-04-24T13:17:51;1.98;;;0.63;;
39044;SDS011;52192;52.002;5.956;2023-04-24T13:20:17;0.70;;;0.65;;
39044;SDS011;52192;52.002;5.956;2023-04-24T13:22:43;0.57;;;0.55;;
39044;SDS011;52192;52.002;5.956;2023-04-24T13:25:09;1.55;;;0.30;;
39044;SDS011;52192;52.002;5.956;2023-04-24T13:27:35;1.27;;;0.55;;
39044;SDS011;52192;52.002;5.956;2023-04-24T13:30:03;1.05;;;0.60;;
39044;SDS011;52192;52.002;5.956;2023-04-24T13:32:29;0.65;;;0.63;;
39044;SDS011;52192;52.002;5.956;2023-04-24T13:34:54;0.93;;;0.70;;
39044;SDS011;52192;52.002;5.956;2023-04-24T13:37:21;0.50;;;0.50;;
39044;SDS011;52192;52.002;5.956;2023-04-24T13:39:47;2.03;;;0.77;;
39044;SDS011;52192;52.002;5.956;2023-04-24T13:42:13;2.67;;;1.02;;
39044;SDS011;52192;52.002;5.956;2023-04-24T13:44:39;2.28;;;1.25;;
39044;SDS011;52192;52.002;5.956;2023-04-24T13:47:06;12.32;;;1.02;;
39044;SDS011;52192;52.002;5.956;2023-04-24T13:49:32;1.17;;;0.80;;
39044;SDS011;52192;52.002;5.956;2023-04-24T13:51:57;1.63;;;0.65;;
39044;SDS011;52192;52.002;5.956;2023-04-24T13:54:23;0.95;;;0.70;;
39044;SDS011;52192;52.002;5.956;2023-04-24T13:56:50;0.98;;;0.52;;
39044;SDS011;52192;52.002;5.956;2023-04-24T13:59:17;2.47;;;0.82;;
39044;SDS011;52192;52.002;5.956;2023-04-24T14:01:44;2.00;;;0.90;;
39044;SDS011;52192;52.002;5.956;2023-04-24T14:04:10;0.98;;;0.82;;
39044;SDS011;52192;52.002;5.956;2023-04-24T14:06:36;3.70;;;1.05;;
39044;SDS011;52192;52.002;5.956;2023-04-24T14:09:01;4.55;;;0.88;;
39044;SDS011;52192;52.002;5.956;2023-04-24T14:11:27;4.10;;;0.85;;
39044;SDS011;52192;52.002;5.956;2023-04-24T14:13:54;0.50;;;0.50;;
39044;SDS011;52192;52.002;5.956;2023-04-24T14:16:23;1.30;;;0.85;;
39044;SDS011;52192;52.002;5.956;2023-04-24T14:18:48;1.85;;;0.70;;
39044;SDS011;52192;52.002;5.956;2023-04-24T14:21:15;2.55;;;1.13;;
39044;SDS011;52192;52.002;5.956;2023-04-24T14:23:41;5.55;;;1.23;;
39044;SDS011;52192;52.002;5.956;2023-04-24T14:26:06;3.55;;;1.05;;
39044;SDS011;52192;52.002;5.956;2023-04-24T14:28:32;0.80;;;0.77;;
39044;SDS011;52192;52.002;5.956;2023-04-24T14:30:57;3.30;;;1.02;;
39044;SDS011;52192;52.002;5.956;2023-04-24T14:33:23;1.88;;;1.38;;
39044;SDS011;52192;52.002;5.956;2023-04-24T14:35:49;4.70;;;1.88;;
39044;SDS011;52192;52.002;5.956;2023-04-24T14:38:15;2.20;;;1.20;;
39044;SDS011;52192;52.002;5.956;2023-04-24T14:40:40;1.25;;;0.90;;
39044;SDS011;52192;52.002;5.956;2023-04-24T14:43:06;4.72;;;1.58;;
39044;SDS011;52192;52.002;5.956;2023-04-24T14:45:32;0.80;;;0.60;;
39044;SDS011;52192;52.002;5.956;2023-04-24T14:47:57;2.42;;;0.63;;
39044;SDS011;52192;52.002;5.956;2023-04-24T14:50:23;3.00;;;0.93;;
39044;SDS011;52192;52.002;5.956;2023-04-24T14:52:52;4.47;;;0.95;;
39044;SDS011;52192;52.002;5.956;2023-04-24T14:55:24;5.00;;;0.75;;
39044;SDS011;52192;52.002;5.956;2023-04-24T14:57:51;2.03;;;0.82;;
39044;SDS011;52192;52.002;5.956;2023-04-24T15:00:17;2.05;;;1.00;;
39044;SDS011;52192;52.002;5.956;2023-04-24T15:02:45;1.38;;;0.98;;